sensor_id;sensor_type;location;lat;lon;timestamp;pressure;altitude;pressure_sealevel;temperature;humidity
74716;BME280;63234;37.558;127.058;2023-08-07T00:02:10;100126.72;;;13.63;69.47
74716;BME280;63234;37.558;127.058;2023-08-07T00:04:35;100122.53;;;13.67;69.36
74716;BME280;63234;37.558;127.058;2023-08-07T00:07:01;100133.38;;;13.77;69.27
74716;BME280;63234;37.558;127.058;2023-08-07T00:09:27;100138.97;;;13.75;69.02
74716;BME280;63234;37.558;127.058;2023-08-07T00:11:53;100132.75;;;13.70;68.83
74716;BME280;63234;37.558;127.058;2023-08-07T00:14:19;100141.56;;;13.70;68.85
74716;BME280;63234;37.558;127.058;2023-08-07T00:16:45;100145.69;;;13.78;69.17
74716;BME280;63234;37.558;127.058;2023-08-07T00:19:11;100152.81;;;13.89;68.70
74716;BME280;63234;37.558;127.058;2023-08-07T00:21:37;100150.16;;;13.89;68.60
74716;BME280;63234;37.558;127.058;2023-08-07T00:24:04;100149.81;;;13.69;68.44
74716;BME280;63234;37.558;127.058;2023-08-07T00:26:30;100146.16;;;13.75;69.13
74716;BME280;63234;37.558;127.058;2023-08-07T00:28:57;100141.13;;;13.62;69.28
74716;BME280;63234;37.558;127.058;2023-08-07T00:31:23;100140.00;;;13.58;69.25
74716;BME280;63234;37.558;127.058;2023-08-07T00:33:49;100143.22;;;13.60;69.86
74716;BME280;63234;37.558;127.058;2023-08-07T00:36:19;100143.00;;;13.61;69.43
74716;BME280;63234;37.558;127.058;2023-08-07T00:38:45;100146.88;;;13.53;69.48
74716;BME280;63234;37.558;127.058;2023-08-07T00:41:11;100140.72;;;13.53;69.24
74716;BME280;63234;37.558;127.058;2023-08-07T00:43:37;100143.38;;;13.36;70.12
74716;BME280;63234;37.558;127.058;2023-08-07T00:46:03;100139.47;;;13.44;69.83
74716;BME280;63234;37.558;127.058;2023-08-07T00:48:29;100136.59;;;13.45;70.01
74716;BME280;63234;37.558;127.058;2023-08-07T00:50:57;100137.13;;;13.19;70.02
74716;BME280;63234;37.558;127.058;2023-08-07T00:53:24;100148.22;;;13.39;69.62
74716;BME280;63234;37.558;127.058;2023-08-07T00:55:50;100142.69;;;13.29;70.02
74716;BME280;63234;37.558;127.058;2023-08-07T00:58:17;100142.69;;;13.29;69.95
74716;BME280;63234;37.558;127.058;2023-08-07T01:00:44;100140.59;;;13.19;70.20
74716;BME280;63234;37.558;127.058;2023-08-07T01:03:12;100143.75;;;13.16;70.04
74716;BME280;63234;37.558;127.058;2023-08-07T01:05:39;100146.66;;;13.15;70.27
74716;BME280;63234;37.558;127.058;2023-08-07T01:08:05;100146.41;;;13.16;70.19
74716;BME280;63234;37.558;127.058;2023-08-07T01:10:50;100150.69;;;13.17;70.29
74716;BME280;63234;37.558;127.058;2023-08-07T01:13:28;100146.78;;;13.08;70.39
74716;BME280;63234;37.558;127.058;2023-08-07T01:15:58;100147.72;;;13.02;70.66
74716;BME280;63234;37.558;127.058;2023-08-07T01:18:26;100150.66;;;13.00;70.63
74716;BME280;63234;37.558;127.058;2023-08-07T01:20:52;100147.41;;;12.98;70.45
74716;BME280;63234;37.558;127.058;2023-08-07T01:23:18;100152.97;;;12.97;70.43
74716;BME280;63234;37.558;127.058;2023-08-07T01:25:44;100156.69;;;12.96;70.86
74716;BME280;63234;37.558;127.058;2023-08-07T01:28:33;100156.69;;;12.96;70.73
74716;BME280;63234;37.558;127.058;2023-08-07T01:31:04;100157.41;;;12.91;70.32
74716;BME280;63234;37.558;127.058;2023-08-07T01:33:43;100166.44;;;12.90;70.01
74716;BME280;63234;37.558;127.058;2023-08-07T01:36:14;100179.91;;;12.95;70.58
74716;BME280;63234;37.558;127.058;2023-08-07T01:38:42;100174.69;;;12.89;70.40
74716;BME280;63234;37.558;127.058;2023-08-07T01:41:09;100176.16;;;12.96;70.08
74716;BME280;63234;37.558;127.058;2023-08-07T01:43:35;100170.75;;;12.91;70.20
74716;BME280;63234;37.558;127.058;2023-08-07T01:46:01;100181.75;;;12.95;70.60
74716;BME280;63234;37.558;127.058;2023-08-07T01:48:28;100174.44;;;12.90;70.40
74716;BME280;63234;37.558;127.058;2023-08-07T01:50:54;100178.63;;;12.86;70.26
74716;BME280;63234;37.558;127.058;2023-08-07T01:53:21;100171.81;;;12.78;70.19
74716;BME280;63234;37.558;127.058;2023-08-07T01:55:47;100174.72;;;12.77;70.54
74716;BME280;63234;37.558;127.058;2023-08-07T01:58:13;100174.81;;;12.82;70.69
74716;BME280;63234;37.558;127.058;2023-08-07T02:00:38;100174.16;;;12.63;70.75
74716;BME280;63234;37.558;127.058;2023-08-07T02:03:04;100181.44;;;12.79;70.65
74716;BME280;63234;37.558;127.058;2023-08-07T02:05:30;100181.56;;;12.73;70.49
74716;BME280;63234;37.558;127.058;2023-08-07T02:07:56;100181.56;;;12.73;70.68
74716;BME280;63234;37.558;127.058;2023-08-07T02:10:23;100188.84;;;12.77;70.94
74716;BME280;63234;37.558;127.058;2023-08-07T02:12:50;100184.78;;;12.75;70.81
74716;BME280;63234;37.558;127.058;2023-08-07T02:15:16;100188.50;;;12.74;70.77
74716;BME280;63234;37.558;127.058;2023-08-07T02:17:42;100193.16;;;12.78;70.68
74716;BME280;63234;37.558;127.058;2023-08-07T02:20:08;100190.03;;;12.81;70.77
74716;BME280;63234;37.558;127.058;2023-08-07T02:22:34;100194.91;;;12.84;70.76
74716;BME280;63234;37.558;127.058;2023-08-07T02:25:01;100193.16;;;12.78;70.65
74716;BME280;63234;37.558;127.058;2023-08-07T02:27:26;100196.41;;;12.69;70.67
74716;BME280;63234;37.558;127.058;2023-08-07T02:29:52;100192.44;;;12.83;70.80
74716;BME280;63234;37.558;127.058;2023-08-07T02:32:19;100201.59;;;12.87;70.82
74716;BME280;63234;37.558;127.058;2023-08-07T02:34:45;100190.59;;;12.83;70.59
74716;BME280;63234;37.558;127.058;2023-08-07T02:37:11;100188.84;;;12.77;71.05
74716;BME280;63234;37.558;127.058;2023-08-07T02:39:37;100185.38;;;12.77;70.87
74716;BME280;63234;37.558;127.058;2023-08-07T02:42:03;100181.78;;;12.83;71.09
74716;BME280;63234;37.558;127.058;2023-08-07T02:44:29;100187.56;;;12.80;71.22
74716;BME280;63234;37.558;127.058;2023-08-07T02:46:55;100180.97;;;12.82;71.54
74716;BME280;63234;37.558;127.058;2023-08-07T02:49:21;100186.19;;;12.77;71.30
74716;BME280;63234;37.558;127.058;2023-08-07T02:51:47;100184.31;;;12.78;71.73
74716;BME280;63234;37.558;127.058;2023-08-07T02:54:13;100183.78;;;12.64;71.88
74716;BME280;63234;37.558;127.058;2023-08-07T02:56:40;100178.22;;;12.54;72.08
74716;BME280;63234;37.558;127.058;2023-08-07T02:59:06;100174.03;;;12.58;72.41
74716;BME280;63234;37.558;127.058;2023-08-07T03:01:32;100176.81;;;12.51;71.78
74716;BME280;63234;37.558;127.058;2023-08-07T03:03:58;100182.38;;;12.61;71.99
74716;BME280;63234;37.558;127.058;2023-08-07T03:06:24;100175.19;;;12.62;71.10
74716;BME280;63234;37.558;127.058;2023-08-07T03:08:50;100188.19;;;12.70;71.21
74716;BME280;63234;37.558;127.058;2023-08-07T03:11:16;100180.28;;;12.75;71.04
74716;BME280;63234;37.558;127.058;2023-08-07T03:13:42;100185.38;;;12.77;70.78
74716;BME280;63234;37.558;127.058;2023-08-07T03:16:09;100182.03;;;12.81;70.85
74716;BME280;63234;37.558;127.058;2023-08-07T03:18:35;100177.72;;;12.80;70.59
74716;BME280;63234;37.558;127.058;2023-08-07T03:21:01;100176.78;;;12.75;70.85
74716;BME280;63234;37.558;127.058;2023-08-07T03:23:28;100175.16;;;12.85;70.24
74716;BME280;63234;37.558;127.058;2023-08-07T03:26:08;100181.50;;;12.96;70.13
74716;BME280;63234;37.558;127.058;2023-08-07T03:28:35;100173.44;;;12.79;70.58
74716;BME280;63234;37.558;127.058;2023-08-07T03:31:02;100174.50;;;12.67;70.91
74716;BME280;63234;37.558;127.058;2023-08-07T03:33:30;100182.97;;;12.63;71.09
74716;BME280;63234;37.558;127.058;2023-08-07T03:35:55;100172.28;;;12.75;71.24
74716;BME280;63234;37.558;127.058;2023-08-07T03:38:22;100171.69;;;12.73;71.01
74716;BME280;63234;37.558;127.058;2023-08-07T03:40:48;100169.16;;;12.78;71.29
74716;BME280;63234;37.558;127.058;2023-08-07T03:43:14;100174.38;;;12.73;71.26
74716;BME280;63234;37.558;127.058;2023-08-07T03:45:40;100179.91;;;12.72;71.66
74716;BME280;63234;37.558;127.058;2023-08-07T03:48:06;100179.13;;;12.59;71.87
74716;BME280;63234;37.558;127.058;2023-08-07T03:50:32;100165.91;;;12.65;72.06
74716;BME280;63234;37.558;127.058;2023-08-07T03:53:00;100175.09;;;12.57;72.42
74716;BME280;63234;37.558;127.058;2023-08-07T03:55:27;100178.31;;;12.59;72.44
74716;BME280;63234;37.558;127.058;2023-08-07T03:57:53;100179.50;;;12.63;72.24
74716;BME280;63234;37.558;127.058;2023-08-07T04:00:19;100173.91;;;12.65;72.76
74716;BME280;63234;37.558;127.058;2023-08-07T04:03:04;100183.91;;;12.46;72.64
74716;BME280;63234;37.558;127.058;2023-08-07T04:05:33;100183.19;;;12.50;72.73
74716;BME280;63234;37.558;127.058;2023-08-07T04:07:59;100179.72;;;12.38;73.28
74716;BME280;63234;37.558;127.058;2023-08-07T04:10:25;100188.88;;;12.42;73.61
74716;BME280;63234;37.558;127.058;2023-08-07T04:12:51;100183.91;;;12.57;73.14
74716;BME280;63234;37.558;127.058;2023-08-07T04:15:17;100191.31;;;12.55;73.43
74716;BME280;63234;37.558;127.058;2023-08-07T04:17:43;100191.78;;;12.52;73.25
74716;BME280;63234;37.558;127.058;2023-08-07T04:20:09;100193.63;;;12.52;74.04
74716;BME280;63234;37.558;127.058;2023-08-07T04:22:35;100194.31;;;12.47;74.25
74716;BME280;63234;37.558;127.058;2023-08-07T04:25:02;100192.81;;;12.39;74.22
74716;BME280;63234;37.558;127.058;2023-08-07T04:27:28;100190.38;;;12.38;74.14
74716;BME280;63234;37.558;127.058;2023-08-07T04:29:54;100193.84;;;12.38;74.53
74716;BME280;63234;37.558;127.058;2023-08-07T04:32:19;100193.75;;;12.33;74.60
74716;BME280;63234;37.558;127.058;2023-08-07T04:34:45;100200.38;;;12.43;74.61
74716;BME280;63234;37.558;127.058;2023-08-07T04:37:11;100197.34;;;12.39;74.60
74716;BME280;63234;37.558;127.058;2023-08-07T04:39:37;100199.19;;;12.38;75.01
74716;BME280;63234;37.558;127.058;2023-08-07T04:42:03;100197.81;;;12.36;74.81
74716;BME280;63234;37.558;127.058;2023-08-07T04:44:29;100197.44;;;12.44;74.65
74716;BME280;63234;37.558;127.058;2023-08-07T04:46:55;100203.50;;;12.39;74.85
74716;BME280;63234;37.558;127.058;2023-08-07T04:49:22;100205.69;;;12.43;74.99
74716;BME280;63234;37.558;127.058;2023-08-07T04:51:48;100197.69;;;12.43;74.61
74716;BME280;63234;37.558;127.058;2023-08-07T04:54:14;100200.00;;;12.39;74.92
74716;BME280;63234;37.558;127.058;2023-08-07T04:56:40;100204.19;;;12.47;74.53
74716;BME280;63234;37.558;127.058;2023-08-07T04:59:07;100215.31;;;12.55;74.48
74716;BME280;63234;37.558;127.058;2023-08-07T05:01:33;100207.91;;;12.46;74.48
74716;BME280;63234;37.558;127.058;2023-08-07T05:03:59;100206.97;;;12.63;74.27
74716;BME280;63234;37.558;127.058;2023-08-07T05:06:25;100214.03;;;12.58;74.45
74716;BME280;63234;37.558;127.058;2023-08-07T05:08:51;100212.88;;;12.66;74.52
74716;BME280;63234;37.558;127.058;2023-08-07T05:11:36;100216.81;;;12.75;73.97
74716;BME280;63234;37.558;127.058;2023-08-07T05:14:02;100218.19;;;12.89;73.64
74716;BME280;63234;37.558;127.058;2023-08-07T05:16:29;100218.53;;;12.81;74.01
74716;BME280;63234;37.558;127.058;2023-08-07T05:18:55;100213.31;;;12.86;73.50
74716;BME280;63234;37.558;127.058;2023-08-07T05:21:21;100223.78;;;12.88;73.74
74716;BME280;63234;37.558;127.058;2023-08-07T05:23:47;100221.78;;;12.95;73.94
74716;BME280;63234;37.558;127.058;2023-08-07T05:26:13;100221.47;;;12.91;73.47
74716;BME280;63234;37.558;127.058;2023-08-07T05:28:39;100223.88;;;12.93;73.75
74716;BME280;63234;37.558;127.058;2023-08-07T05:31:05;100230.50;;;12.90;73.60
74716;BME280;63234;37.558;127.058;2023-08-07T05:33:31;100231.75;;;12.99;73.62
74716;BME280;63234;37.558;127.058;2023-08-07T05:35:57;100230.41;;;12.85;73.66
74716;BME280;63234;37.558;127.058;2023-08-07T05:38:23;100222.94;;;12.99;73.47
74716;BME280;63234;37.558;127.058;2023-08-07T05:40:49;100230.78;;;13.17;73.23
74716;BME280;63234;37.558;127.058;2023-08-07T05:43:16;100232.09;;;13.15;73.34
74716;BME280;63234;37.558;127.058;2023-08-07T05:45:42;100241.00;;;13.20;72.79
74716;BME280;63234;37.558;127.058;2023-08-07T05:48:10;100237.78;;;13.18;72.87
74716;BME280;63234;37.558;127.058;2023-08-07T05:50:36;100241.59;;;13.34;72.54
74716;BME280;63234;37.558;127.058;2023-08-07T05:53:02;100234.53;;;13.28;72.81
74716;BME280;63234;37.558;127.058;2023-08-07T05:55:27;100235.91;;;13.19;72.45
74716;BME280;63234;37.558;127.058;2023-08-07T05:57:53;100240.94;;;13.27;72.17
74716;BME280;63234;37.558;127.058;2023-08-07T06:00:19;100246.13;;;13.22;72.53
74716;BME280;63234;37.558;127.058;2023-08-07T06:02:45;100246.50;;;13.25;72.59
74716;BME280;63234;37.558;127.058;2023-08-07T06:05:11;100254.00;;;13.40;72.38
74716;BME280;63234;37.558;127.058;2023-08-07T06:07:39;100256.91;;;13.39;72.23
74716;BME280;63234;37.558;127.058;2023-08-07T06:10:06;100253.34;;;13.33;72.20
74716;BME280;63234;37.558;127.058;2023-08-07T06:12:32;100252.81;;;13.48;72.17
74716;BME280;63234;37.558;127.058;2023-08-07T06:14:58;100252.28;;;13.34;71.84
74716;BME280;63234;37.558;127.058;2023-08-07T06:17:23;100265.16;;;13.37;72.05
74716;BME280;63234;37.558;127.058;2023-08-07T06:19:49;100262.22;;;13.50;72.11
74716;BME280;63234;37.558;127.058;2023-08-07T06:22:15;100253.97;;;13.52;72.24
74716;BME280;63234;37.558;127.058;2023-08-07T06:24:41;100263.09;;;13.68;71.88
74716;BME280;63234;37.558;127.058;2023-08-07T06:27:07;100257.94;;;13.49;71.43
74716;BME280;63234;37.558;127.058;2023-08-07T06:29:32;100265.22;;;13.54;71.41
74716;BME280;63234;37.558;127.058;2023-08-07T06:31:58;100256.88;;;13.50;71.41
74716;BME280;63234;37.558;127.058;2023-08-07T06:34:24;100262.03;;;13.69;71.56
74716;BME280;63234;37.558;127.058;2023-08-07T06:36:50;100262.50;;;13.66;71.48
74716;BME280;63234;37.558;127.058;2023-08-07T06:39:16;100261.19;;;13.80;71.28
74716;BME280;63234;37.558;127.058;2023-08-07T06:41:41;100266.66;;;14.02;70.54
74716;BME280;63234;37.558;127.058;2023-08-07T06:44:07;100276.16;;;14.10;70.37
74716;BME280;63234;37.558;127.058;2023-08-07T06:46:33;100268.91;;;13.93;71.00
74716;BME280;63234;37.558;127.058;2023-08-07T06:48:59;100272.91;;;14.08;70.81
74716;BME280;63234;37.558;127.058;2023-08-07T06:51:25;100273.38;;;14.05;70.94
74716;BME280;63234;37.558;127.058;2023-08-07T06:53:51;100278.91;;;14.15;71.13
74716;BME280;63234;37.558;127.058;2023-08-07T06:56:17;100284.53;;;14.30;70.83
74716;BME280;63234;37.558;127.058;2023-08-07T06:58:43;100283.09;;;14.39;70.57
74716;BME280;63234;37.558;127.058;2023-08-07T07:01:09;100284.13;;;14.38;70.66
74716;BME280;63234;37.558;127.058;2023-08-07T07:03:35;100286.41;;;14.46;69.94
74716;BME280;63234;37.558;127.058;2023-08-07T07:06:00;100280.00;;;14.48;68.56
74716;BME280;63234;37.558;127.058;2023-08-07T07:08:26;100290.16;;;14.62;68.18
74716;BME280;63234;37.558;127.058;2023-08-07T07:10:52;100283.63;;;14.70;67.11
74716;BME280;63234;37.558;127.058;2023-08-07T07:13:18;100288.53;;;14.78;66.58
74716;BME280;63234;37.558;127.058;2023-08-07T07:15:44;100287.72;;;14.78;65.61
74716;BME280;63234;37.558;127.058;2023-08-07T07:18:10;100281.31;;;14.79;64.98
74716;BME280;63234;37.558;127.058;2023-08-07T07:20:36;100293.75;;;14.68;63.89
74716;BME280;63234;37.558;127.058;2023-08-07T07:23:01;100311.00;;;14.77;63.92
74716;BME280;63234;37.558;127.058;2023-08-07T07:25:27;100316.09;;;14.79;62.93
74716;BME280;63234;37.558;127.058;2023-08-07T07:27:53;100311.91;;;14.83;62.60
74716;BME280;63234;37.558;127.058;2023-08-07T07:30:19;100311.66;;;14.84;61.87
74716;BME280;63234;37.558;127.058;2023-08-07T07:32:46;100309.88;;;14.90;58.63
74716;BME280;63234;37.558;127.058;2023-08-07T07:35:12;100318.69;;;14.90;57.94
74716;BME280;63234;37.558;127.058;2023-08-07T07:37:38;100323.81;;;14.92;57.87
74716;BME280;63234;37.558;127.058;2023-08-07T07:40:04;100324.63;;;14.93;57.42
74716;BME280;63234;37.558;127.058;2023-08-07T07:42:30;100327.53;;;14.91;57.41
74716;BME280;63234;37.558;127.058;2023-08-07T07:44:55;100327.06;;;14.94;57.62
74716;BME280;63234;37.558;127.058;2023-08-07T07:47:21;100336.56;;;15.02;57.03
74716;BME280;63234;37.558;127.058;2023-08-07T07:49:47;100342.53;;;15.09;56.74
74716;BME280;63234;37.558;127.058;2023-08-07T07:52:13;100339.53;;;15.22;56.51
74716;BME280;63234;37.558;127.058;2023-08-07T07:54:39;100335.38;;;15.14;56.84
74716;BME280;63234;37.558;127.058;2023-08-07T07:57:05;100334.00;;;15.12;57.22
74716;BME280;63234;37.558;127.058;2023-08-07T07:59:32;100332.31;;;15.23;56.21
74716;BME280;63234;37.558;127.058;2023-08-07T08:01:57;100338.78;;;15.27;56.08
74716;BME280;63234;37.558;127.058;2023-08-07T08:04:23;100334.00;;;15.29;56.12
74716;BME280;63234;37.558;127.058;2023-08-07T08:06:49;100340.16;;;15.51;55.80
74716;BME280;63234;37.558;127.058;2023-08-07T08:09:15;100337.22;;;15.70;54.51
74716;BME280;63234;37.558;127.058;2023-08-07T08:11:41;100344.31;;;15.59;53.94
74716;BME280;63234;37.558;127.058;2023-08-07T08:14:06;100337.31;;;15.58;53.80
74716;BME280;63234;37.558;127.058;2023-08-07T08:16:32;100340.16;;;15.68;54.33
74716;BME280;63234;37.558;127.058;2023-08-07T08:18:58;100350.97;;;15.73;54.02
74716;BME280;63234;37.558;127.058;2023-08-07T08:21:24;100358.94;;;15.68;54.65
74716;BME280;63234;37.558;127.058;2023-08-07T08:23:50;100357.28;;;15.67;55.20
74716;BME280;63234;37.558;127.058;2023-08-07T08:26:16;100360.88;;;15.56;54.82
74716;BME280;63234;37.558;127.058;2023-08-07T08:28:41;100367.66;;;15.42;55.51
74716;BME280;63234;37.558;127.058;2023-08-07T08:31:07;100362.41;;;15.69;55.04
74716;BME280;63234;37.558;127.058;2023-08-07T08:33:34;100366.06;;;15.63;55.01
74716;BME280;63234;37.558;127.058;2023-08-07T08:35:59;100365.78;;;15.64;55.32
74716;BME280;63234;37.558;127.058;2023-08-07T08:38:25;100369.53;;;15.80;55.49
74716;BME280;63234;37.558;127.058;2023-08-07T08:40:54;100366.53;;;15.98;54.24
74716;BME280;63234;37.558;127.058;2023-08-07T08:43:20;100360.53;;;15.91;53.31
74716;BME280;63234;37.558;127.058;2023-08-07T08:45:47;100362.56;;;16.06;53.71
74716;BME280;63234;37.558;127.058;2023-08-07T08:48:19;100356.50;;;15.89;53.85
74716;BME280;63234;37.558;127.058;2023-08-07T08:50:49;100356.97;;;16.08;54.95
74716;BME280;63234;37.558;127.058;2023-08-07T08:53:16;100364.72;;;16.04;53.78
74716;BME280;63234;37.558;127.058;2023-08-07T08:55:42;100344.88;;;16.05;54.51
74716;BME280;63234;37.558;127.058;2023-08-07T08:58:13;100348.50;;;16.21;53.78
74716;BME280;63234;37.558;127.058;2023-08-07T09:00:41;100356.34;;;16.00;54.01
74716;BME280;63234;37.558;127.058;2023-08-07T09:03:07;100350.72;;;16.02;54.23
74716;BME280;63234;37.558;127.058;2023-08-07T09:05:34;100345.81;;;15.94;53.29
74716;BME280;63234;37.558;127.058;2023-08-07T09:08:01;100346.28;;;16.13;53.15
74716;BME280;63234;37.558;127.058;2023-08-07T09:10:28;100347.00;;;16.30;52.91
74716;BME280;63234;37.558;127.058;2023-08-07T09:13:02;100351.06;;;16.33;52.55
74716;BME280;63234;37.558;127.058;2023-08-07T09:15:32;100355.25;;;16.23;52.46
74716;BME280;63234;37.558;127.058;2023-08-07T09:17:59;100348.22;;;16.44;52.06
74716;BME280;63234;37.558;127.058;2023-08-07T09:20:26;100352.84;;;16.54;52.45
74716;BME280;63234;37.558;127.058;2023-08-07T09:22:54;100341.78;;;16.45;51.92
74716;BME280;63234;37.558;127.058;2023-08-07T09:25:33;100350.59;;;16.41;53.09
74716;BME280;63234;37.558;127.058;2023-08-07T09:28:04;100342.25;;;16.37;52.56
74716;BME280;63234;37.558;127.058;2023-08-07T09:30:30;100346.09;;;16.19;53.13
74716;BME280;63234;37.558;127.058;2023-08-07T09:33:00;100353.06;;;16.20;54.10
74716;BME280;63234;37.558;127.058;2023-08-07T09:35:26;100342.50;;;16.36;52.32
74716;BME280;63234;37.558;127.058;2023-08-07T09:37:53;100348.22;;;16.44;52.67
74716;BME280;63234;37.558;127.058;2023-08-07T09:40:19;100341.16;;;16.65;52.56
74716;BME280;63234;37.558;127.058;2023-08-07T09:42:50;100347.88;;;16.68;52.20
74716;BME280;63234;37.558;127.058;2023-08-07T09:45:22;100351.38;;;16.68;51.29
74716;BME280;63234;37.558;127.058;2023-08-07T09:48:04;100345.44;;;16.66;51.44
74716;BME280;63234;37.558;127.058;2023-08-07T09:50:34;100343.03;;;16.65;50.87
74716;BME280;63234;37.558;127.058;2023-08-07T09:53:00;100349.22;;;16.70;51.34
74716;BME280;63234;37.558;127.058;2023-08-07T09:55:26;100350.44;;;16.85;51.15
74716;BME280;63234;37.558;127.058;2023-08-07T09:57:52;100347.72;;;16.80;51.06
74716;BME280;63234;37.558;127.058;2023-08-07T10:00:19;100357.28;;;16.70;51.25
74716;BME280;63234;37.558;127.058;2023-08-07T10:02:49;100348.22;;;16.77;51.37
74716;BME280;63234;37.558;127.058;2023-08-07T10:05:16;100356.75;;;17.01;50.91
74716;BME280;63234;37.558;127.058;2023-08-07T10:07:42;100344.97;;;16.74;50.60
74716;BME280;63234;37.558;127.058;2023-08-07T10:13:29;100351.75;;;16.77;51.37
74716;BME280;63234;37.558;127.058;2023-08-07T10:15:56;100352.25;;;17.11;51.14
74716;BME280;63234;37.558;127.058;2023-08-07T10:18:22;100353.34;;;17.15;51.16
74716;BME280;63234;37.558;127.058;2023-08-07T10:20:48;100359.00;;;17.19;50.38
74716;BME280;63234;37.558;127.058;2023-08-07T10:23:15;100354.47;;;17.19;49.41
74716;BME280;63234;37.558;127.058;2023-08-07T10:25:43;100352.59;;;17.20;49.79
74716;BME280;63234;37.558;127.058;2023-08-07T10:28:14;100358.13;;;17.56;50.05
74716;BME280;63234;37.558;127.058;2023-08-07T10:30:42;100366.19;;;17.56;49.93
74716;BME280;63234;37.558;127.058;2023-08-07T10:33:10;100366.03;;;17.73;50.19
74716;BME280;63234;37.558;127.058;2023-08-07T10:35:37;100353.31;;;17.58;49.54
74716;BME280;63234;37.558;127.058;2023-08-07T10:38:10;100359.84;;;17.19;50.20
74716;BME280;63234;37.558;127.058;2023-08-07T10:41:01;100355.69;;;17.02;50.77
74716;BME280;63234;37.558;127.058;2023-08-07T10:43:27;100367.47;;;16.95;51.41
74716;BME280;63234;37.558;127.058;2023-08-07T10:46:02;100364.75;;;16.90;51.83
74716;BME280;63234;37.558;127.058;2023-08-07T10:49:04;100375.22;;;16.92;51.53
74716;BME280;63234;37.558;127.058;2023-08-07T10:51:30;100363.72;;;16.96;51.64
74716;BME280;63234;37.558;127.058;2023-08-07T10:53:56;100362.22;;;17.11;51.73
74716;BME280;63234;37.558;127.058;2023-08-07T10:56:36;100360.38;;;17.22;50.85
74716;BME280;63234;37.558;127.058;2023-08-07T10:59:11;100353.94;;;17.23;49.82
74716;BME280;63234;37.558;127.058;2023-08-07T11:01:41;100351.94;;;17.50;49.73
74716;BME280;63234;37.558;127.058;2023-08-07T11:04:11;100356.16;;;17.83;49.33
74716;BME280;63234;37.558;127.058;2023-08-07T11:06:38;100356.97;;;17.84;49.24
74716;BME280;63234;37.558;127.058;2023-08-07T11:09:06;100354.31;;;17.94;49.10
74716;BME280;63234;37.558;127.058;2023-08-07T11:11:38;100353.25;;;18.00;48.87
74716;BME280;63234;37.558;127.058;2023-08-07T11:14:08;100345.47;;;18.09;48.06
74716;BME280;63234;37.558;127.058;2023-08-07T11:17:05;100338.13;;;17.84;47.58
74716;BME280;63234;37.558;127.058;2023-08-07T11:19:31;100345.75;;;18.28;48.17
74716;BME280;63234;37.558;127.058;2023-08-07T11:21:57;100347.88;;;18.05;48.19
74716;BME280;63234;37.558;127.058;2023-08-07T11:24:23;100353.47;;;17.83;47.73
74716;BME280;63234;37.558;127.058;2023-08-07T11:26:52;100343.84;;;17.45;49.34
74716;BME280;63234;37.558;127.058;2023-08-07T11:29:18;100356.72;;;17.38;52.20
74716;BME280;63234;37.558;127.058;2023-08-07T11:31:45;100361.53;;;17.36;52.97
74716;BME280;63234;37.558;127.058;2023-08-07T11:34:11;100353.47;;;17.36;51.44
74716;BME280;63234;37.558;127.058;2023-08-07T11:36:43;100352.91;;;17.29;50.59
74716;BME280;63234;37.558;127.058;2023-08-07T11:39:10;100339.28;;;17.46;50.75
74716;BME280;63234;37.558;127.058;2023-08-07T11:44:58;100347.59;;;18.07;49.75
74716;BME280;63234;37.558;127.058;2023-08-07T11:47:24;100345.22;;;18.26;49.72
74716;BME280;63234;37.558;127.058;2023-08-07T11:49:52;100338.00;;;18.42;48.14
74716;BME280;63234;37.558;127.058;2023-08-07T11:52:18;100336.09;;;18.37;47.96
74716;BME280;63234;37.558;127.058;2023-08-07T11:54:47;100329.09;;;18.41;47.46
74716;BME280;63234;37.558;127.058;2023-08-07T11:57:17;100333.94;;;18.49;47.67
74716;BME280;63234;37.558;127.058;2023-08-07T11:59:47;100335.03;;;18.38;48.24
74716;BME280;63234;37.558;127.058;2023-08-07T12:02:13;100336.66;;;18.54;47.89
74716;BME280;63234;37.558;127.058;2023-08-07T12:04:40;100344.44;;;18.56;47.12
74716;BME280;63234;37.558;127.058;2023-08-07T12:07:06;100338.25;;;18.35;46.80
74716;BME280;63234;37.558;127.058;2023-08-07T12:09:31;100338.72;;;18.06;47.09
74716;BME280;63234;37.558;127.058;2023-08-07T12:11:57;100342.50;;;18.10;47.31
74716;BME280;63234;37.558;127.058;2023-08-07T12:14:31;100340.13;;;18.40;46.15
74716;BME280;63234;37.558;127.058;2023-08-07T12:16:56;100329.34;;;18.50;46.51
74716;BME280;63234;37.558;127.058;2023-08-07T12:19:22;100338.81;;;18.83;46.88
74716;BME280;63234;37.558;127.058;2023-08-07T12:21:48;100326.66;;;18.96;46.17
74716;BME280;63234;37.558;127.058;2023-08-07T12:24:14;100334.00;;;18.75;46.90
74716;BME280;63234;37.558;127.058;2023-08-07T12:26:40;100323.72;;;18.46;48.36
74716;BME280;63234;37.558;127.058;2023-08-07T12:29:06;100325.34;;;18.57;48.33
74716;BME280;63234;37.558;127.058;2023-08-07T12:31:32;100339.34;;;18.60;48.36
74716;BME280;63234;37.558;127.058;2023-08-07T12:33:58;100338.25;;;18.45;49.03
74716;BME280;63234;37.558;127.058;2023-08-07T12:36:23;100337.75;;;18.79;48.77
74716;BME280;63234;37.558;127.058;2023-08-07T12:38:49;100344.19;;;18.52;48.42